Cherokee, IA (51012)

7:53 AM CST on February 14, 2016 (GMT -0600)
APRSWXNET | | Change Station
CLOSE
Current Station
Personal Weather Station
Location: Cherokee, IA
Elevation: 1312 ft
Nearby Weather Stations
Active Advisory: Winter Weather Advisory

Elev 1312 ft 42.76 °N, 95.52 °W | Updated 35 minutes ago

Light Snow
Light Snow
15 °F
Feels Like 8 °F
N
4
Wind Variable Wind from SE
Gusts 0.0 mph

Today
High -- | Low -- °F
--% Chance of Precip.
Yesterday
High -- | Low -- °F
Precip. -- in
Pressure 29.92 in
Visibility 2.0 miles
Clouds Scattered Clouds 1400 ft
Scattered Clouds 2100 ft
Overcast 6500 ft
Windchill 8 °F
Dew Point 13 °F
Humidity 90%
Rainfall in
Snow Depth Not available.
7:21 AM 5:52 PM
Waxing Crescent, 42% visible
METAR KCKP 141335Z AUTO 15008KT 2SM -SN SCT014 SCT021 OVC065 M09/M10 A2992 RMK AO2 T10911101
Pressure 29.92 in
Visibility 2.0 miles
Clouds Scattered Clouds 1400 ft
Scattered Clouds 2100 ft
Overcast 6500 ft
Windchill 8 °F
Dew Point 13 °F
Humidity 90%
Rainfall in
Snow Depth Not available.
7:21 AM 5:52 PM
Waxing Crescent, 42% visible
METAR KCKP 141335Z AUTO 15008KT 2SM -SN SCT014 SCT021 OVC065 M09/M10 A2992 RMK AO2 T10911101

10-Day Weather Forecast

Almanac

Astronomy

Feb. 14, 2016 Rise Set
Actual Time
Civil Twilight
Nautical Twilight
Astronomical Twilight
Moon
Length of Visible Light
Length of Day
Tomorrow will be .
, % of the Moon is Illuminated

Today's Extremes

State Highs State Lows

Community

WunderPhotos

Upload Photos

1,892,793 photos uploaded!

WunderBlog® & News

Nearby

Air Quality

  Air Quality AQ Index Pollutant
Not available.

Snow Depth

Station Depth Elevation

Earthquake Activity

City Distance Mag. Time & Date
Minimum magnitude displayed is 2.5.

Coastal Water Temperatures

Place Temperature

Stations

Nearby Weather Stations

Station Location Temp. Windchill Dew Point Humidity Wind Precip. Elev Updated Type
                   

Watches & Warnings

Winter Weather Advisory
Issued: 5:19 AM CST Feb. 14, 2016 – National Weather Service

... Winter Weather Advisory remains in effect until noon CST
today...

* timing... periods of snowfall will end this morning.

* Accumulations... generally 1 to 3 inches. The slightly higher
amounts will likely be over parts of northwest Iowa.

* Wind and visibility... southeast winds 20 to 30 mph could cause
visibilities to lower to less than a half mile in snow and
blowing snow in open areas.

Precautionary/preparedness actions...

A Winter Weather Advisory for snow and blowing snow means that
visibilities will be limited due to a combination of falling and
blowing snow. Use caution when traveling... especially in open
areas.